Terminal Aerodrome Forecast
Issued by NWS Wilmington, OH

Current Version | Previous Version | Text Only | Print | Product List | Glossary Off
Versions: 1 2 3 4 5 6 7 8 9 10 11 12 13 14 15 16 17 18 19 20 21 22 23 24 25 26 27

619
FTUS41 KILN 202329
TAFCVG
TAF
KCVG 202329Z 2100/2206 24012G24KT P6SM -SHRA BKN050 OVC100
      TEMPO 2100/2104 VRB10G25KT 2SM TSRA OVC025CB
     FM210600 28008KT P6SM VCSH BKN025
     FM210900 32008KT P6SM BKN080
     FM211200 33008KT P6SM SCT140
     FM212300 36008KT P6SM OVC050=

USA.gov is the U.S. government's official web portal to all federal, state and local government web resources and services.